sensor_id;sensor_type;location;lat;lon;timestamp;P1;durP1;ratioP1;P2;durP2;ratioP2
43529;SDS011;55654;50.966;6.878;2023-04-01T00:00:59;1.87;;;0.20;;
43529;SDS011;55654;50.966;6.878;2023-04-01T00:03:26;1.63;;;0.33;;
43529;SDS011;55654;50.966;6.878;2023-04-01T00:05:53;1.70;;;0.30;;
43529;SDS011;55654;50.966;6.878;2023-04-01T00:08:19;2.40;;;0.30;;
43529;SDS011;55654;50.966;6.878;2023-04-01T00:10:48;1.63;;;0.50;;
43529;SDS011;55654;50.966;6.878;2023-04-01T00:13:14;2.00;;;0.20;;
43529;SDS011;55654;50.966;6.878;2023-04-01T00:15:41;1.70;;;0.30;;
43529;SDS011;55654;50.966;6.878;2023-04-01T00:18:07;3.47;;;0.87;;
43529;SDS011;55654;50.966;6.878;2023-04-01T00:20:33;2.00;;;0.37;;
43529;SDS011;55654;50.966;6.878;2023-04-01T00:22:59;2.43;;;0.40;;
43529;SDS011;55654;50.966;6.878;2023-04-01T00:25:25;2.20;;;0.50;;
43529;SDS011;55654;50.966;6.878;2023-04-01T00:27:54;1.10;;;0.30;;
43529;SDS011;55654;50.966;6.878;2023-04-01T00:30:20;3.23;;;0.20;;
43529;SDS011;55654;50.966;6.878;2023-04-01T00:32:46;2.97;;;0.30;;
43529;SDS011;55654;50.966;6.878;2023-04-01T00:35:12;2.53;;;0.30;;
43529;SDS011;55654;50.966;6.878;2023-04-01T00:37:38;2.50;;;0.40;;
43529;SDS011;55654;50.966;6.878;2023-04-01T00:40:05;1.20;;;0.27;;
43529;SDS011;55654;50.966;6.878;2023-04-01T00:42:31;3.80;;;0.40;;
43529;SDS011;55654;50.966;6.878;2023-04-01T00:45:21;0.97;;;0.30;;
43529;SDS011;55654;50.966;6.878;2023-04-01T00:47:43;0.93;;;0.30;;
43529;SDS011;55654;50.966;6.878;2023-04-01T00:50:09;3.47;;;0.37;;
43529;SDS011;55654;50.966;6.878;2023-04-01T00:52:38;0.77;;;0.20;;
43529;SDS011;55654;50.966;6.878;2023-04-01T00:55:04;0.87;;;0.37;;
43529;SDS011;55654;50.966;6.878;2023-04-01T00:57:31;1.43;;;0.30;;
43529;SDS011;55654;50.966;6.878;2023-04-01T00:59:58;1.73;;;0.20;;
43529;SDS011;55654;50.966;6.878;2023-04-01T01:02:27;0.87;;;0.40;;
43529;SDS011;55654;50.966;6.878;2023-04-01T01:04:53;1.40;;;0.30;;
43529;SDS011;55654;50.966;6.878;2023-04-01T01:12:18;3.67;;;0.30;;
43529;SDS011;55654;50.966;6.878;2023-04-01T01:28:33;0.73;;;0.10;;
43529;SDS011;55654;50.966;6.878;2023-04-01T01:30:51;2.72;;;0.17;;
43529;SDS011;55654;50.966;6.878;2023-04-01T01:33:25;1.27;;;0.20;;
43529;SDS011;55654;50.966;6.878;2023-04-01T01:35:57;0.63;;;0.20;;
43529;SDS011;55654;50.966;6.878;2023-04-01T01:38:28;1.53;;;0.40;;
43529;SDS011;55654;50.966;6.878;2023-04-01T01:40:57;0.77;;;0.20;;
43529;SDS011;55654;50.966;6.878;2023-04-01T01:43:25;1.60;;;0.27;;
43529;SDS011;55654;50.966;6.878;2023-04-01T01:45:55;2.67;;;0.23;;
43529;SDS011;55654;50.966;6.878;2023-04-01T01:48:23;2.23;;;0.40;;
43529;SDS011;55654;50.966;6.878;2023-04-01T01:50:49;2.43;;;0.60;;
43529;SDS011;55654;50.966;6.878;2023-04-01T01:53:16;2.27;;;0.30;;
43529;SDS011;55654;50.966;6.878;2023-04-01T01:55:43;0.50;;;0.23;;
43529;SDS011;55654;50.966;6.878;2023-04-01T01:58:15;1.23;;;0.23;;
43529;SDS011;55654;50.966;6.878;2023-04-01T02:00:43;1.97;;;0.30;;
43529;SDS011;55654;50.966;6.878;2023-04-01T02:03:10;2.30;;;0.20;;
43529;SDS011;55654;50.966;6.878;2023-04-01T02:05:38;1.00;;;0.30;;
43529;SDS011;55654;50.966;6.878;2023-04-01T02:08:09;3.73;;;0.30;;
43529;SDS011;55654;50.966;6.878;2023-04-01T02:10:37;0.80;;;0.20;;
43529;SDS011;55654;50.966;6.878;2023-04-01T02:13:09;1.17;;;0.30;;
43529;SDS011;55654;50.966;6.878;2023-04-01T02:15:37;0.52;;;0.10;;
43529;SDS011;55654;50.966;6.878;2023-04-01T02:18:07;0.83;;;0.20;;
43529;SDS011;55654;50.966;6.878;2023-04-01T02:20:33;2.00;;;0.30;;
43529;SDS011;55654;50.966;6.878;2023-04-01T02:23:00;0.53;;;0.20;;
43529;SDS011;55654;50.966;6.878;2023-04-01T02:25:32;0.40;;;0.20;;
43529;SDS011;55654;50.966;6.878;2023-04-01T02:27:59;1.35;;;0.38;;
43529;SDS011;55654;50.966;6.878;2023-04-01T02:30:29;2.47;;;0.23;;
43529;SDS011;55654;50.966;6.878;2023-04-01T02:32:56;3.40;;;0.30;;
43529;SDS011;55654;50.966;6.878;2023-04-01T02:35:23;1.10;;;0.40;;
43529;SDS011;55654;50.966;6.878;2023-04-01T02:37:49;1.07;;;0.30;;
43529;SDS011;55654;50.966;6.878;2023-04-01T02:40:16;0.70;;;0.20;;
43529;SDS011;55654;50.966;6.878;2023-04-01T02:42:42;2.57;;;0.40;;
43529;SDS011;55654;50.966;6.878;2023-04-01T02:45:08;1.83;;;0.40;;
43529;SDS011;55654;50.966;6.878;2023-04-01T02:47:35;1.27;;;0.30;;
43529;SDS011;55654;50.966;6.878;2023-04-01T02:50:01;1.70;;;0.20;;
43529;SDS011;55654;50.966;6.878;2023-04-01T02:52:28;2.83;;;0.33;;
43529;SDS011;55654;50.966;6.878;2023-04-01T02:54:54;5.07;;;0.70;;
43529;SDS011;55654;50.966;6.878;2023-04-01T02:57:21;2.73;;;0.80;;
43529;SDS011;55654;50.966;6.878;2023-04-01T02:59:47;3.13;;;0.50;;
43529;SDS011;55654;50.966;6.878;2023-04-01T03:02:13;0.80;;;0.20;;
43529;SDS011;55654;50.966;6.878;2023-04-01T03:04:39;2.53;;;0.53;;
43529;SDS011;55654;50.966;6.878;2023-04-01T03:07:08;1.30;;;0.10;;
43529;SDS011;55654;50.966;6.878;2023-04-01T03:09:37;1.07;;;0.20;;
43529;SDS011;55654;50.966;6.878;2023-04-01T03:12:03;0.73;;;0.20;;
43529;SDS011;55654;50.966;6.878;2023-04-01T03:14:29;0.80;;;0.20;;
43529;SDS011;55654;50.966;6.878;2023-04-01T03:16:55;1.17;;;0.10;;
43529;SDS011;55654;50.966;6.878;2023-04-01T03:19:21;0.30;;;0.10;;
43529;SDS011;55654;50.966;6.878;2023-04-01T03:21:47;1.33;;;0.20;;
43529;SDS011;55654;50.966;6.878;2023-04-01T03:24:13;0.43;;;0.17;;
43529;SDS011;55654;50.966;6.878;2023-04-01T03:26:39;2.10;;;0.20;;
43529;SDS011;55654;50.966;6.878;2023-04-01T03:29:05;1.37;;;0.20;;
43529;SDS011;55654;50.966;6.878;2023-04-01T03:31:31;4.80;;;0.40;;
43529;SDS011;55654;50.966;6.878;2023-04-01T03:33:57;0.57;;;0.13;;
43529;SDS011;55654;50.966;6.878;2023-04-01T03:36:25;1.53;;;0.20;;
43529;SDS011;55654;50.966;6.878;2023-04-01T03:38:51;0.60;;;0.30;;
43529;SDS011;55654;50.966;6.878;2023-04-01T03:41:17;2.50;;;0.30;;
43529;SDS011;55654;50.966;6.878;2023-04-01T03:43:44;0.40;;;0.20;;
43529;SDS011;55654;50.966;6.878;2023-04-01T03:46:16;0.93;;;0.13;;
43529;SDS011;55654;50.966;6.878;2023-04-01T03:48:42;1.90;;;0.20;;
43529;SDS011;55654;50.966;6.878;2023-04-01T03:51:11;2.20;;;0.20;;
43529;SDS011;55654;50.966;6.878;2023-04-01T03:53:37;0.67;;;0.20;;
43529;SDS011;55654;50.966;6.878;2023-04-01T03:56:03;1.17;;;0.20;;
43529;SDS011;55654;50.966;6.878;2023-04-01T03:58:32;0.67;;;0.20;;
43529;SDS011;55654;50.966;6.878;2023-04-01T04:00:58;0.40;;;0.13;;
43529;SDS011;55654;50.966;6.878;2023-04-01T04:03:24;0.80;;;0.10;;
43529;SDS011;55654;50.966;6.878;2023-04-01T04:05:51;0.63;;;0.20;;
43529;SDS011;55654;50.966;6.878;2023-04-01T04:08:17;1.30;;;0.10;;
43529;SDS011;55654;50.966;6.878;2023-04-01T04:10:43;0.73;;;0.20;;
43529;SDS011;55654;50.966;6.878;2023-04-01T04:13:09;0.10;;;0.10;;
43529;SDS011;55654;50.966;6.878;2023-04-01T04:15:35;1.90;;;0.20;;
43529;SDS011;55654;50.966;6.878;2023-04-01T04:18:01;0.60;;;0.10;;
43529;SDS011;55654;50.966;6.878;2023-04-01T04:20:29;0.37;;;0.10;;
43529;SDS011;55654;50.966;6.878;2023-04-01T04:22:55;0.20;;;0.10;;
43529;SDS011;55654;50.966;6.878;2023-04-01T04:25:21;1.23;;;0.20;;
43529;SDS011;55654;50.966;6.878;2023-04-01T04:27:47;0.67;;;0.10;;
43529;SDS011;55654;50.966;6.878;2023-04-01T04:30:14;1.30;;;0.67;;
43529;SDS011;55654;50.966;6.878;2023-04-01T04:32:40;0.40;;;0.20;;
43529;SDS011;55654;50.966;6.878;2023-04-01T04:35:07;1.60;;;0.20;;
43529;SDS011;55654;50.966;6.878;2023-04-01T04:37:33;0.83;;;0.10;;
43529;SDS011;55654;50.966;6.878;2023-04-01T04:39:59;2.77;;;0.30;;
43529;SDS011;55654;50.966;6.878;2023-04-01T04:42:25;1.77;;;0.10;;
43529;SDS011;55654;50.966;6.878;2023-04-01T04:44:51;0.83;;;0.20;;
43529;SDS011;55654;50.966;6.878;2023-04-01T04:47:17;1.23;;;0.10;;
43529;SDS011;55654;50.966;6.878;2023-04-01T04:49:43;0.93;;;0.20;;
43529;SDS011;55654;50.966;6.878;2023-04-01T04:52:11;1.43;;;0.20;;
43529;SDS011;55654;50.966;6.878;2023-04-01T04:54:39;2.70;;;0.20;;
43529;SDS011;55654;50.966;6.878;2023-04-01T04:57:05;1.23;;;0.50;;
43529;SDS011;55654;50.966;6.878;2023-04-01T04:59:33;1.97;;;0.60;;
43529;SDS011;55654;50.966;6.878;2023-04-01T05:01:59;1.13;;;0.10;;
43529;SDS011;55654;50.966;6.878;2023-04-01T05:04:25;2.03;;;0.37;;
43529;SDS011;55654;50.966;6.878;2023-04-01T05:06:54;2.07;;;0.33;;
43529;SDS011;55654;50.966;6.878;2023-04-01T05:09:20;0.83;;;0.20;;
43529;SDS011;55654;50.966;6.878;2023-04-01T05:11:46;3.40;;;0.60;;
43529;SDS011;55654;50.966;6.878;2023-04-01T05:14:13;1.07;;;0.20;;
43529;SDS011;55654;50.966;6.878;2023-04-01T05:16:41;2.43;;;0.83;;
43529;SDS011;55654;50.966;6.878;2023-04-01T05:19:09;1.40;;;0.20;;
43529;SDS011;55654;50.966;6.878;2023-04-01T05:21:35;2.40;;;0.30;;
43529;SDS011;55654;50.966;6.878;2023-04-01T05:24:06;2.10;;;0.30;;
43529;SDS011;55654;50.966;6.878;2023-04-01T05:26:33;0.67;;;0.30;;
43529;SDS011;55654;50.966;6.878;2023-04-01T05:28:59;0.43;;;0.20;;
43529;SDS011;55654;50.966;6.878;2023-04-01T05:31:25;3.20;;;0.30;;
43529;SDS011;55654;50.966;6.878;2023-04-01T05:33:51;1.27;;;0.30;;
43529;SDS011;55654;50.966;6.878;2023-04-01T05:36:18;0.40;;;0.30;;
43529;SDS011;55654;50.966;6.878;2023-04-01T05:38:44;1.10;;;0.50;;
43529;SDS011;55654;50.966;6.878;2023-04-01T05:41:11;5.40;;;0.83;;
43529;SDS011;55654;50.966;6.878;2023-04-01T05:43:37;3.00;;;0.60;;
43529;SDS011;55654;50.966;6.878;2023-04-01T05:46:03;2.13;;;0.50;;
43529;SDS011;55654;50.966;6.878;2023-04-01T05:48:29;2.23;;;0.40;;
43529;SDS011;55654;50.966;6.878;2023-04-01T05:50:55;0.87;;;0.50;;
43529;SDS011;55654;50.966;6.878;2023-04-01T05:53:21;1.10;;;0.40;;
43529;SDS011;55654;50.966;6.878;2023-04-01T05:55:47;2.27;;;0.50;;
43529;SDS011;55654;50.966;6.878;2023-04-01T05:58:13;1.63;;;0.50;;
43529;SDS011;55654;50.966;6.878;2023-04-01T06:00:39;1.60;;;0.40;;
43529;SDS011;55654;50.966;6.878;2023-04-01T06:03:05;1.97;;;0.53;;
43529;SDS011;55654;50.966;6.878;2023-04-01T06:05:37;2.33;;;0.50;;
43529;SDS011;55654;50.966;6.878;2023-04-01T06:08:11;1.58;;;0.50;;
43529;SDS011;55654;50.966;6.878;2023-04-01T06:10:45;1.63;;;0.50;;
43529;SDS011;55654;50.966;6.878;2023-04-01T06:13:30;1.30;;;0.63;;
43529;SDS011;55654;50.966;6.878;2023-04-01T06:16:07;2.40;;;0.60;;
43529;SDS011;55654;50.966;6.878;2023-04-01T06:34:43;2.87;;;0.70;;
43529;SDS011;55654;50.966;6.878;2023-04-01T06:40:22;1.03;;;0.67;;
43529;SDS011;55654;50.966;6.878;2023-04-01T06:50:56;2.00;;;1.00;;
43529;SDS011;55654;50.966;6.878;2023-04-01T06:53:29;1.33;;;0.90;;
43529;SDS011;55654;50.966;6.878;2023-04-01T06:56:02;2.00;;;1.00;;
43529;SDS011;55654;50.966;6.878;2023-04-01T06:58:34;4.10;;;0.90;;
43529;SDS011;55654;50.966;6.878;2023-04-01T07:01:06;3.77;;;1.27;;
43529;SDS011;55654;50.966;6.878;2023-04-01T07:06:02;1.37;;;0.90;;
43529;SDS011;55654;50.966;6.878;2023-04-01T07:08:29;2.73;;;1.00;;
43529;SDS011;55654;50.966;6.878;2023-04-01T07:11:01;3.00;;;1.83;;
43529;SDS011;55654;50.966;6.878;2023-04-01T07:18:49;1.33;;;0.90;;
43529;SDS011;55654;50.966;6.878;2023-04-01T07:21:23;1.87;;;1.17;;
43529;SDS011;55654;50.966;6.878;2023-04-01T07:24:03;1.50;;;0.90;;
43529;SDS011;55654;50.966;6.878;2023-04-01T07:26:30;3.10;;;1.00;;
43529;SDS011;55654;50.966;6.878;2023-04-01T07:28:56;3.17;;;1.27;;
43529;SDS011;55654;50.966;6.878;2023-04-01T07:31:40;2.93;;;0.90;;
43529;SDS011;55654;50.966;6.878;2023-04-01T07:37:09;3.50;;;1.10;;
43529;SDS011;55654;50.966;6.878;2023-04-01T07:42:21;1.63;;;1.00;;
43529;SDS011;55654;50.966;6.878;2023-04-01T07:47:32;1.30;;;1.00;;
43529;SDS011;55654;50.966;6.878;2023-04-01T07:50:09;1.53;;;1.03;;
43529;SDS011;55654;50.966;6.878;2023-04-01T08:03:33;2.05;;;1.08;;
43529;SDS011;55654;50.966;6.878;2023-04-01T08:06:19;2.50;;;0.90;;
43529;SDS011;55654;50.966;6.878;2023-04-01T08:21:43;2.30;;;0.90;;
43529;SDS011;55654;50.966;6.878;2023-04-01T08:24:34;3.22;;;0.68;;
43529;SDS011;55654;50.966;6.878;2023-04-01T08:26:58;1.30;;;0.60;;
43529;SDS011;55654;50.966;6.878;2023-04-01T08:32:08;1.30;;;0.80;;
43529;SDS011;55654;50.966;6.878;2023-04-01T08:34:37;1.17;;;0.90;;
43529;SDS011;55654;50.966;6.878;2023-04-01T08:37:08;2.00;;;0.77;;
43529;SDS011;55654;50.966;6.878;2023-04-01T08:39:48;2.43;;;1.00;;
43529;SDS011;55654;50.966;6.878;2023-04-01T08:52:46;1.15;;;1.02;;
43529;SDS011;55654;50.966;6.878;2023-04-01T08:57:45;2.57;;;0.40;;
43529;SDS011;55654;50.966;6.878;2023-04-01T09:00:33;0.50;;;0.50;;
43529;SDS011;55654;50.966;6.878;2023-04-01T09:05:38;2.17;;;0.40;;
43529;SDS011;55654;50.966;6.878;2023-04-01T09:08:18;1.43;;;0.43;;
43529;SDS011;55654;50.966;6.878;2023-04-01T09:16:13;0.80;;;0.20;;
43529;SDS011;55654;50.966;6.878;2023-04-01T09:18:53;1.17;;;0.40;;
43529;SDS011;55654;50.966;6.878;2023-04-01T09:31:54;1.67;;;0.50;;
43529;SDS011;55654;50.966;6.878;2023-04-01T09:34:30;1.20;;;0.47;;
43529;SDS011;55654;50.966;6.878;2023-04-01T09:39:56;2.20;;;0.47;;
43529;SDS011;55654;50.966;6.878;2023-04-01T09:45:00;0.88;;;0.50;;
43529;SDS011;55654;50.966;6.878;2023-04-01T09:47:43;0.90;;;0.80;;
43529;SDS011;55654;50.966;6.878;2023-04-01T09:53:34;2.83;;;1.40;;
43529;SDS011;55654;50.966;6.878;2023-04-01T09:55:56;0.87;;;0.70;;
43529;SDS011;55654;50.966;6.878;2023-04-01T09:58:33;1.03;;;0.90;;
43529;SDS011;55654;50.966;6.878;2023-04-01T10:24:26;1.23;;;0.93;;
43529;SDS011;55654;50.966;6.878;2023-04-01T10:29:49;1.97;;;1.00;;
43529;SDS011;55654;50.966;6.878;2023-04-01T10:32:26;2.77;;;1.43;;
43529;SDS011;55654;50.966;6.878;2023-04-01T10:41:00;2.30;;;1.60;;
43529;SDS011;55654;50.966;6.878;2023-04-01T10:44:01;3.27;;;1.60;;
43529;SDS011;55654;50.966;6.878;2023-04-01T10:51:55;1.30;;;1.20;;
43529;SDS011;55654;50.966;6.878;2023-04-01T10:57:24;1.40;;;1.30;;
43529;SDS011;55654;50.966;6.878;2023-04-01T11:00:18;1.10;;;1.00;;
43529;SDS011;55654;50.966;6.878;2023-04-01T11:03:03;1.70;;;1.50;;
43529;SDS011;55654;50.966;6.878;2023-04-01T11:11:00;3.07;;;1.20;;
43529;SDS011;55654;50.966;6.878;2023-04-01T11:18:40;1.58;;;0.80;;
43529;SDS011;55654;50.966;6.878;2023-04-01T11:23:46;0.97;;;0.87;;
43529;SDS011;55654;50.966;6.878;2023-04-01T11:44:23;1.33;;;0.80;;
43529;SDS011;55654;50.966;6.878;2023-04-01T12:06:05;0.73;;;0.70;;
43529;SDS011;55654;50.966;6.878;2023-04-01T12:08:50;1.03;;;0.80;;
43529;SDS011;55654;50.966;6.878;2023-04-01T12:19:08;0.93;;;0.70;;
43529;SDS011;55654;50.966;6.878;2023-04-01T12:22:23;0.80;;;0.80;;
43529;SDS011;55654;50.966;6.878;2023-04-01T12:24:36;0.70;;;0.70;;
43529;SDS011;55654;50.966;6.878;2023-04-01T12:35:18;0.60;;;0.60;;
43529;SDS011;55654;50.966;6.878;2023-04-01T13:01:54;0.90;;;0.70;;
43529;SDS011;55654;50.966;6.878;2023-04-01T13:17:24;1.20;;;0.90;;
43529;SDS011;55654;50.966;6.878;2023-04-01T13:20:02;1.20;;;1.00;;
43529;SDS011;55654;50.966;6.878;2023-04-01T13:28:14;1.20;;;1.10;;
43529;SDS011;55654;50.966;6.878;2023-04-01T13:30:49;1.30;;;1.20;;
43529;SDS011;55654;50.966;6.878;2023-04-01T14:05:15;3.53;;;1.87;;
43529;SDS011;55654;50.966;6.878;2023-04-01T14:08:00;2.13;;;1.50;;
43529;SDS011;55654;50.966;6.878;2023-04-01T14:15:31;2.50;;;2.10;;
43529;SDS011;55654;50.966;6.878;2023-04-01T14:18:47;2.37;;;1.90;;
43529;SDS011;55654;50.966;6.878;2023-04-01T14:38:52;3.20;;;2.63;;
43529;SDS011;55654;50.966;6.878;2023-04-01T14:41:24;3.83;;;3.07;;
43529;SDS011;55654;50.966;6.878;2023-04-01T14:46:23;3.33;;;2.87;;
43529;SDS011;55654;50.966;6.878;2023-04-01T14:49:00;3.33;;;3.00;;
43529;SDS011;55654;50.966;6.878;2023-04-01T14:54:02;3.10;;;2.83;;
43529;SDS011;55654;50.966;6.878;2023-04-01T15:40:20;2.57;;;2.33;;
43529;SDS011;55654;50.966;6.878;2023-04-01T15:45:18;3.20;;;2.90;;
43529;SDS011;55654;50.966;6.878;2023-04-01T15:50:35;3.40;;;2.90;;
43529;SDS011;55654;50.966;6.878;2023-04-01T16:03:17;5.77;;;4.00;;
43529;SDS011;55654;50.966;6.878;2023-04-01T16:10:45;4.03;;;3.63;;
43529;SDS011;55654;50.966;6.878;2023-04-01T16:13:30;4.95;;;3.55;;
43529;SDS011;55654;50.966;6.878;2023-04-01T16:26:47;2.93;;;2.67;;
43529;SDS011;55654;50.966;6.878;2023-04-01T16:36:42;3.30;;;3.00;;
43529;SDS011;55654;50.966;6.878;2023-04-01T16:44:26;4.30;;;3.10;;
43529;SDS011;55654;50.966;6.878;2023-04-01T16:46:56;4.30;;;3.40;;
43529;SDS011;55654;50.966;6.878;2023-04-01T16:49:42;2.83;;;2.60;;
43529;SDS011;55654;50.966;6.878;2023-04-01T16:52:16;3.73;;;2.80;;
43529;SDS011;55654;50.966;6.878;2023-04-01T16:57:19;5.63;;;2.80;;
43529;SDS011;55654;50.966;6.878;2023-04-01T16:59:56;2.40;;;2.13;;
43529;SDS011;55654;50.966;6.878;2023-04-01T17:02:28;2.13;;;1.90;;
43529;SDS011;55654;50.966;6.878;2023-04-01T17:05:01;3.37;;;2.20;;
43529;SDS011;55654;50.966;6.878;2023-04-01T17:10:13;2.73;;;2.20;;
43529;SDS011;55654;50.966;6.878;2023-04-01T17:15:23;3.10;;;2.30;;
43529;SDS011;55654;50.966;6.878;2023-04-01T17:20:49;2.40;;;2.20;;
43529;SDS011;55654;50.966;6.878;2023-04-01T17:23:38;3.03;;;2.67;;
43529;SDS011;55654;50.966;6.878;2023-04-01T17:44:37;3.07;;;2.60;;
43529;SDS011;55654;50.966;6.878;2023-04-01T17:49:46;3.20;;;2.90;;
43529;SDS011;55654;50.966;6.878;2023-04-01T17:55:15;4.97;;;3.57;;
43529;SDS011;55654;50.966;6.878;2023-04-01T17:57:46;6.60;;;4.77;;
43529;SDS011;55654;50.966;6.878;2023-04-01T18:00:19;5.80;;;4.37;;
43529;SDS011;55654;50.966;6.878;2023-04-01T18:16:11;7.43;;;5.17;;
43529;SDS011;55654;50.966;6.878;2023-04-01T18:21:53;7.47;;;4.97;;
43529;SDS011;55654;50.966;6.878;2023-04-01T18:24:00;9.30;;;5.90;;
43529;SDS011;55654;50.966;6.878;2023-04-01T18:34:58;6.47;;;5.80;;
43529;SDS011;55654;50.966;6.878;2023-04-01T18:48:06;7.93;;;5.23;;
43529;SDS011;55654;50.966;6.878;2023-04-01T18:50:55;6.03;;;5.10;;
43529;SDS011;55654;50.966;6.878;2023-04-01T18:53:30;5.70;;;4.90;;
43529;SDS011;55654;50.966;6.878;2023-04-01T18:55:59;5.90;;;5.30;;
43529;SDS011;55654;50.966;6.878;2023-04-01T19:03:23;3.80;;;3.37;;
43529;SDS011;55654;50.966;6.878;2023-04-01T19:05:51;6.87;;;4.67;;
43529;SDS011;55654;50.966;6.878;2023-04-01T19:08:25;4.60;;;4.00;;
43529;SDS011;55654;50.966;6.878;2023-04-01T19:20:46;5.07;;;4.37;;
43529;SDS011;55654;50.966;6.878;2023-04-01T19:23:22;4.13;;;3.73;;
43529;SDS011;55654;50.966;6.878;2023-04-01T19:25:55;3.90;;;3.20;;
43529;SDS011;55654;50.966;6.878;2023-04-01T19:28:26;4.33;;;3.93;;
43529;SDS011;55654;50.966;6.878;2023-04-01T19:30:58;3.70;;;3.08;;
43529;SDS011;55654;50.966;6.878;2023-04-01T19:38:28;5.75;;;4.45;;
43529;SDS011;55654;50.966;6.878;2023-04-01T19:43:58;5.17;;;4.60;;
43529;SDS011;55654;50.966;6.878;2023-04-01T19:46:40;5.03;;;4.50;;
43529;SDS011;55654;50.966;6.878;2023-04-01T19:49:27;4.90;;;4.40;;
43529;SDS011;55654;50.966;6.878;2023-04-01T20:05:03;10.63;;;6.50;;
43529;SDS011;55654;50.966;6.878;2023-04-01T20:07:32;11.30;;;6.50;;
43529;SDS011;55654;50.966;6.878;2023-04-01T20:12:59;7.87;;;7.07;;
43529;SDS011;55654;50.966;6.878;2023-04-01T20:15:43;9.07;;;7.53;;
43529;SDS011;55654;50.966;6.878;2023-04-01T20:18:16;9.43;;;7.87;;
43529;SDS011;55654;50.966;6.878;2023-04-01T20:20:52;10.60;;;7.83;;
43529;SDS011;55654;50.966;6.878;2023-04-01T20:26:06;11.60;;;8.70;;
43529;SDS011;55654;50.966;6.878;2023-04-01T20:29:35;10.20;;;8.37;;
43529;SDS011;55654;50.966;6.878;2023-04-01T20:31:42;9.93;;;8.07;;
43529;SDS011;55654;50.966;6.878;2023-04-01T20:50:31;12.17;;;9.60;;
43529;SDS011;55654;50.966;6.878;2023-04-01T20:53:20;12.97;;;9.03;;
43529;SDS011;55654;50.966;6.878;2023-04-01T20:58:15;10.77;;;8.73;;
43529;SDS011;55654;50.966;6.878;2023-04-01T21:11:18;11.00;;;9.13;;
43529;SDS011;55654;50.966;6.878;2023-04-01T21:19:01;13.83;;;9.17;;
43529;SDS011;55654;50.966;6.878;2023-04-01T21:21:40;8.90;;;7.17;;
43529;SDS011;55654;50.966;6.878;2023-04-01T22:05:47;7.90;;;6.40;;
43529;SDS011;55654;50.966;6.878;2023-04-01T22:10:54;8.70;;;6.83;;
43529;SDS011;55654;50.966;6.878;2023-04-01T22:13:41;9.27;;;6.23;;
43529;SDS011;55654;50.966;6.878;2023-04-01T22:18:51;8.43;;;7.00;;
43529;SDS011;55654;50.966;6.878;2023-04-01T22:21:32;11.50;;;7.47;;
43529;SDS011;55654;50.966;6.878;2023-04-01T22:26:33;8.90;;;7.03;;
43529;SDS011;55654;50.966;6.878;2023-04-01T22:41:40;15.80;;;10.07;;
43529;SDS011;55654;50.966;6.878;2023-04-01T22:44:19;17.27;;;12.67;;
43529;SDS011;55654;50.966;6.878;2023-04-01T22:49:18;21.17;;;12.93;;
43529;SDS011;55654;50.966;6.878;2023-04-01T22:56:51;12.20;;;9.43;;
43529;SDS011;55654;50.966;6.878;2023-04-01T23:01:52;11.13;;;9.77;;
43529;SDS011;55654;50.966;6.878;2023-04-01T23:04:21;12.17;;;10.87;;
43529;SDS011;55654;50.966;6.878;2023-04-01T23:06:51;12.70;;;9.93;;
43529;SDS011;55654;50.966;6.878;2023-04-01T23:11:46;12.37;;;10.47;;
43529;SDS011;55654;50.966;6.878;2023-04-01T23:14:25;12.45;;;10.10;;
43529;SDS011;55654;50.966;6.878;2023-04-01T23:30:00;16.30;;;12.60;;
43529;SDS011;55654;50.966;6.878;2023-04-01T23:32:26;16.23;;;13.07;;
43529;SDS011;55654;50.966;6.878;2023-04-01T23:34:55;19.13;;;13.30;;
43529;SDS011;55654;50.966;6.878;2023-04-01T23:37:22;18.47;;;13.83;;
43529;SDS011;55654;50.966;6.878;2023-04-01T23:42:18;18.63;;;13.60;;
43529;SDS011;55654;50.966;6.878;2023-04-01T23:44:44;16.97;;;12.80;;
43529;SDS011;55654;50.966;6.878;2023-04-01T23:53:16;17.37;;;12.47;;
43529;SDS011;55654;50.966;6.878;2023-04-01T23:55:23;17.50;;;12.45;;
